Cheney, KS (67025)

8:49 AM CST on December 10, 2016 (GMT -0600)
Trail Ridge | | Change Station

Elev 1486 ft 37.72 °N, 97.83 °W | Updated 6 seconds ago

Overcast
Overcast
27.9 °F
Feels Like 21 °F
N
6.0
Wind Variable Wind from SSE

Today
High -- | Low -- °F
--% Chance of Precip.
Yesterday
High -- | Low -- °F
Precip. -- in
Pressure 30.38 in
Visibility 10.0 miles
Clouds Mostly Cloudy 4200 ft
Overcast 6000 ft
Windchill 21 °F
Dew Point 20 °F
Humidity 74%
Rainfall 0.00 in
Snow Depth Not available.
7:35 AM 5:12 PM
Waxing Gibbous, 84% visible
METAR KICT 101353Z 12005KT 10SM BKN042 OVC060 M03/M08 A3033 RMK AO2 SLP285 T10281078
Pressure 30.38 in
Visibility 10.0 miles
Clouds Mostly Cloudy 4200 ft
Overcast 6000 ft
Windchill 21 °F
Dew Point 20 °F
Humidity 74%
Rainfall 0.00 in
Snow Depth Not available.
7:35 AM 5:12 PM
Waxing Gibbous, 84% visible
METAR KICT 101353Z 12005KT 10SM BKN042 OVC060 M03/M08 A3033 RMK AO2 SLP285 T10281078

10-Day Weather Forecast

Almanac

Astronomy

Dec. 10, 2016 Rise Set
Actual Time
Civil Twilight
Nautical Twilight
Astronomical Twilight
Moon
Length of Visible Light
Length of Day
Tomorrow will be .
, % of the Moon is Illuminated

Today's Extremes

State Highs State Lows

Community

WunderPhotos

Upload Photos

1,956,549 photos uploaded!

WunderBlog® & News

Nearby

Air Quality

  Air Quality AQ Index Pollutant
Not available.

Snow Depth

Station Depth Elevation

Earthquake Activity

City Distance Mag. Time & Date
Minimum magnitude displayed is 2.5.

Coastal Water Temperatures

Place Temperature

Stations

Nearby Weather Stations

Station Location Temp. Windchill Dew Point Humidity Wind Precip. Elev Updated Type
                   

Watches & Warnings

There are currently no watches in effect.